sensor_id;sensor_type;location;lat;lon;timestamp;temperature;humidity
8475;DHT22;4274;52.012;8.448;2023-05-10T00:01:54;13.90;99.90
8475;DHT22;4274;52.012;8.448;2023-05-10T00:04:19;13.90;99.90
8475;DHT22;4274;52.012;8.448;2023-05-10T00:06:45;13.90;99.90
8475;DHT22;4274;52.012;8.448;2023-05-10T00:09:11;14.00;99.90
8475;DHT22;4274;52.012;8.448;2023-05-10T00:11:37;13.90;99.90
8475;DHT22;4274;52.012;8.448;2023-05-10T00:14:02;13.90;99.90
8475;DHT22;4274;52.012;8.448;2023-05-10T00:16:28;13.90;99.90
8475;DHT22;4274;52.012;8.448;2023-05-10T00:18:53;13.90;99.90
8475;DHT22;4274;52.012;8.448;2023-05-10T00:21:19;13.90;99.90
8475;DHT22;4274;52.012;8.448;2023-05-10T00:23:45;13.90;99.90
8475;DHT22;4274;52.012;8.448;2023-05-10T00:26:10;13.90;99.90
8475;DHT22;4274;52.012;8.448;2023-05-10T00:28:36;13.90;99.90
8475;DHT22;4274;52.012;8.448;2023-05-10T00:31:01;13.90;99.90
8475;DHT22;4274;52.012;8.448;2023-05-10T00:33:27;13.90;99.90
8475;DHT22;4274;52.012;8.448;2023-05-10T00:35:53;13.80;99.90
8475;DHT22;4274;52.012;8.448;2023-05-10T00:38:18;13.80;99.90
8475;DHT22;4274;52.012;8.448;2023-05-10T00:40:44;13.80;99.90
8475;DHT22;4274;52.012;8.448;2023-05-10T00:43:09;13.80;99.90
8475;DHT22;4274;52.012;8.448;2023-05-10T00:45:36;13.80;99.90
8475;DHT22;4274;52.012;8.448;2023-05-10T00:48:03;13.80;99.90
8475;DHT22;4274;52.012;8.448;2023-05-10T00:50:29;13.80;99.90
8475;DHT22;4274;52.012;8.448;2023-05-10T00:52:56;13.70;99.90
8475;DHT22;4274;52.012;8.448;2023-05-10T00:55:22;13.70;99.90
8475;DHT22;4274;52.012;8.448;2023-05-10T00:57:48;13.70;99.90
8475;DHT22;4274;52.012;8.448;2023-05-10T01:00:14;13.70;99.90
8475;DHT22;4274;52.012;8.448;2023-05-10T01:02:46;13.70;99.90
8475;DHT22;4274;52.012;8.448;2023-05-10T01:05:12;13.70;99.90
8475;DHT22;4274;52.012;8.448;2023-05-10T01:07:39;13.70;99.90
8475;DHT22;4274;52.012;8.448;2023-05-10T01:10:06;13.80;99.90
8475;DHT22;4274;52.012;8.448;2023-05-10T01:12:37;13.80;99.90
8475;DHT22;4274;52.012;8.448;2023-05-10T01:15:05;13.80;99.90
8475;DHT22;4274;52.012;8.448;2023-05-10T01:17:31;13.80;99.90
8475;DHT22;4274;52.012;8.448;2023-05-10T01:19:57;13.80;99.90
8475;DHT22;4274;52.012;8.448;2023-05-10T01:25:26;13.80;99.90
8475;DHT22;4274;52.012;8.448;2023-05-10T01:31:03;13.80;99.90
8475;DHT22;4274;52.012;8.448;2023-05-10T01:39:04;13.80;99.90
8475;DHT22;4274;52.012;8.448;2023-05-10T01:41:40;13.80;99.90
8475;DHT22;4274;52.012;8.448;2023-05-10T01:44:18;13.80;99.90
8475;DHT22;4274;52.012;8.448;2023-05-10T01:46:50;13.80;99.90
8475;DHT22;4274;52.012;8.448;2023-05-10T01:49:23;13.80;99.90
8475;DHT22;4274;52.012;8.448;2023-05-10T01:52:00;13.70;99.90
8475;DHT22;4274;52.012;8.448;2023-05-10T01:54:29;13.70;99.90
8475;DHT22;4274;52.012;8.448;2023-05-10T01:56:59;13.70;99.90
8475;DHT22;4274;52.012;8.448;2023-05-10T01:59:29;13.70;99.90
8475;DHT22;4274;52.012;8.448;2023-05-10T02:01:58;13.70;99.90
8475;DHT22;4274;52.012;8.448;2023-05-10T02:04:25;13.70;99.90
8475;DHT22;4274;52.012;8.448;2023-05-10T02:06:53;13.70;99.90
8475;DHT22;4274;52.012;8.448;2023-05-10T02:09:20;13.60;99.90
8475;DHT22;4274;52.012;8.448;2023-05-10T02:11:48;13.60;99.90
8475;DHT22;4274;52.012;8.448;2023-05-10T02:14:14;13.60;99.90
8475;DHT22;4274;52.012;8.448;2023-05-10T02:16:41;13.60;99.90
8475;DHT22;4274;52.012;8.448;2023-05-10T02:19:09;13.50;99.90
8475;DHT22;4274;52.012;8.448;2023-05-10T02:21:35;13.50;99.90
8475;DHT22;4274;52.012;8.448;2023-05-10T02:24:03;13.50;99.90
8475;DHT22;4274;52.012;8.448;2023-05-10T02:26:29;13.50;99.90
8475;DHT22;4274;52.012;8.448;2023-05-10T02:28:57;13.40;99.90
8475;DHT22;4274;52.012;8.448;2023-05-10T02:31:23;13.40;99.90
8475;DHT22;4274;52.012;8.448;2023-05-10T02:33:51;13.40;99.90
8475;DHT22;4274;52.012;8.448;2023-05-10T02:36:17;13.40;99.90
8475;DHT22;4274;52.012;8.448;2023-05-10T02:38:43;13.40;99.90
8475;DHT22;4274;52.012;8.448;2023-05-10T02:41:10;13.40;99.90
8475;DHT22;4274;52.012;8.448;2023-05-10T02:43:38;13.40;99.90
8475;DHT22;4274;52.012;8.448;2023-05-10T02:46:05;13.40;99.90
8475;DHT22;4274;52.012;8.448;2023-05-10T02:48:30;13.40;99.90
8475;DHT22;4274;52.012;8.448;2023-05-10T02:51:03;13.40;99.90
8475;DHT22;4274;52.012;8.448;2023-05-10T02:53:36;13.40;99.90
8475;DHT22;4274;52.012;8.448;2023-05-10T02:56:15;13.40;99.90
8475;DHT22;4274;52.012;8.448;2023-05-10T02:58:42;13.40;99.90
8475;DHT22;4274;52.012;8.448;2023-05-10T03:01:08;13.40;99.90
8475;DHT22;4274;52.012;8.448;2023-05-10T03:03:33;13.40;99.90
8475;DHT22;4274;52.012;8.448;2023-05-10T03:05:59;13.30;99.90
8475;DHT22;4274;52.012;8.448;2023-05-10T03:08:25;13.40;99.90
8475;DHT22;4274;52.012;8.448;2023-05-10T03:16:44;13.30;99.90
8475;DHT22;4274;52.012;8.448;2023-05-10T03:19:17;13.40;99.90
8475;DHT22;4274;52.012;8.448;2023-05-10T03:21:50;13.40;99.90
8475;DHT22;4274;52.012;8.448;2023-05-10T03:24:20;13.30;99.90
8475;DHT22;4274;52.012;8.448;2023-05-10T03:26:47;13.30;99.90
8475;DHT22;4274;52.012;8.448;2023-05-10T03:29:14;13.30;99.90
8475;DHT22;4274;52.012;8.448;2023-05-10T03:31:40;13.20;99.90
8475;DHT22;4274;52.012;8.448;2023-05-10T03:34:06;13.20;99.90
8475;DHT22;4274;52.012;8.448;2023-05-10T03:36:32;13.20;99.90
8475;DHT22;4274;52.012;8.448;2023-05-10T03:38:58;13.20;99.90
8475;DHT22;4274;52.012;8.448;2023-05-10T03:41:23;13.20;99.90
8475;DHT22;4274;52.012;8.448;2023-05-10T03:43:50;13.20;99.90
8475;DHT22;4274;52.012;8.448;2023-05-10T03:46:16;13.10;99.90
8475;DHT22;4274;52.012;8.448;2023-05-10T03:48:41;13.10;99.90
8475;DHT22;4274;52.012;8.448;2023-05-10T03:51:07;13.10;99.90
8475;DHT22;4274;52.012;8.448;2023-05-10T03:53:32;13.10;99.90
8475;DHT22;4274;52.012;8.448;2023-05-10T03:55:58;13.00;99.90
8475;DHT22;4274;52.012;8.448;2023-05-10T03:58:24;13.00;99.90
8475;DHT22;4274;52.012;8.448;2023-05-10T04:00:50;13.00;99.90
8475;DHT22;4274;52.012;8.448;2023-05-10T04:03:16;12.90;99.90
8475;DHT22;4274;52.012;8.448;2023-05-10T04:05:42;12.80;99.90
8475;DHT22;4274;52.012;8.448;2023-05-10T04:08:07;12.80;99.90
8475;DHT22;4274;52.012;8.448;2023-05-10T04:10:33;12.70;99.90
8475;DHT22;4274;52.012;8.448;2023-05-10T04:12:58;12.70;99.90
8475;DHT22;4274;52.012;8.448;2023-05-10T04:15:24;12.70;99.90
8475;DHT22;4274;52.012;8.448;2023-05-10T04:17:50;12.70;99.90
8475;DHT22;4274;52.012;8.448;2023-05-10T04:20:15;12.60;99.90
8475;DHT22;4274;52.012;8.448;2023-05-10T04:22:41;12.50;99.90
8475;DHT22;4274;52.012;8.448;2023-05-10T04:25:07;12.50;99.90
8475;DHT22;4274;52.012;8.448;2023-05-10T04:27:33;12.50;99.90
8475;DHT22;4274;52.012;8.448;2023-05-10T04:29:58;12.50;99.90
8475;DHT22;4274;52.012;8.448;2023-05-10T04:32:24;12.50;99.90
8475;DHT22;4274;52.012;8.448;2023-05-10T04:34:50;12.50;99.90
8475;DHT22;4274;52.012;8.448;2023-05-10T04:37:16;12.50;99.90
8475;DHT22;4274;52.012;8.448;2023-05-10T04:39:42;12.50;99.90
8475;DHT22;4274;52.012;8.448;2023-05-10T04:42:08;12.50;99.90
8475;DHT22;4274;52.012;8.448;2023-05-10T04:44:33;12.50;99.90
8475;DHT22;4274;52.012;8.448;2023-05-10T04:47:00;12.50;99.90
8475;DHT22;4274;52.012;8.448;2023-05-10T04:49:27;12.50;99.90
8475;DHT22;4274;52.012;8.448;2023-05-10T04:51:53;12.50;99.90
8475;DHT22;4274;52.012;8.448;2023-05-10T04:54:18;12.50;99.90
8475;DHT22;4274;52.012;8.448;2023-05-10T04:56:44;12.50;99.90
8475;DHT22;4274;52.012;8.448;2023-05-10T04:59:09;12.50;99.90
8475;DHT22;4274;52.012;8.448;2023-05-10T05:01:35;12.40;99.90
8475;DHT22;4274;52.012;8.448;2023-05-10T05:04:01;12.40;99.90
8475;DHT22;4274;52.012;8.448;2023-05-10T05:06:26;12.40;99.90
8475;DHT22;4274;52.012;8.448;2023-05-10T05:08:52;12.50;99.90
8475;DHT22;4274;52.012;8.448;2023-05-10T05:11:18;12.50;99.90
8475;DHT22;4274;52.012;8.448;2023-05-10T05:13:43;12.40;99.90
8475;DHT22;4274;52.012;8.448;2023-05-10T05:16:09;12.40;99.90
8475;DHT22;4274;52.012;8.448;2023-05-10T05:18:36;12.40;99.90
8475;DHT22;4274;52.012;8.448;2023-05-10T05:21:01;12.40;99.90
8475;DHT22;4274;52.012;8.448;2023-05-10T05:23:27;12.40;99.90
8475;DHT22;4274;52.012;8.448;2023-05-10T05:25:53;12.30;99.90
8475;DHT22;4274;52.012;8.448;2023-05-10T05:28:19;12.30;99.90
8475;DHT22;4274;52.012;8.448;2023-05-10T05:30:46;12.30;99.90
8475;DHT22;4274;52.012;8.448;2023-05-10T05:33:13;12.30;99.90
8475;DHT22;4274;52.012;8.448;2023-05-10T05:35:38;12.30;99.90
8475;DHT22;4274;52.012;8.448;2023-05-10T05:38:04;12.30;99.90
8475;DHT22;4274;52.012;8.448;2023-05-10T05:40:29;12.30;99.90
8475;DHT22;4274;52.012;8.448;2023-05-10T05:42:55;12.30;99.90
8475;DHT22;4274;52.012;8.448;2023-05-10T05:45:21;12.30;99.90
8475;DHT22;4274;52.012;8.448;2023-05-10T05:47:46;12.30;99.90
8475;DHT22;4274;52.012;8.448;2023-05-10T05:50:12;12.30;99.90
8475;DHT22;4274;52.012;8.448;2023-05-10T05:52:38;12.30;99.90
8475;DHT22;4274;52.012;8.448;2023-05-10T05:55:04;12.30;99.90
8475;DHT22;4274;52.012;8.448;2023-05-10T05:57:29;12.30;99.90
8475;DHT22;4274;52.012;8.448;2023-05-10T05:59:55;12.30;99.90
8475;DHT22;4274;52.012;8.448;2023-05-10T06:02:21;12.30;99.90
8475;DHT22;4274;52.012;8.448;2023-05-10T06:04:46;12.30;99.90
8475;DHT22;4274;52.012;8.448;2023-05-10T06:07:12;12.30;99.90
8475;DHT22;4274;52.012;8.448;2023-05-10T06:09:37;12.30;99.90
8475;DHT22;4274;52.012;8.448;2023-05-10T06:12:03;12.30;99.90
8475;DHT22;4274;52.012;8.448;2023-05-10T06:14:29;12.30;99.90
8475;DHT22;4274;52.012;8.448;2023-05-10T06:16:54;12.30;99.90
8475;DHT22;4274;52.012;8.448;2023-05-10T06:19:20;12.30;99.90
8475;DHT22;4274;52.012;8.448;2023-05-10T06:21:45;12.30;99.90
8475;DHT22;4274;52.012;8.448;2023-05-10T06:24:11;12.30;99.90
8475;DHT22;4274;52.012;8.448;2023-05-10T06:26:37;12.30;99.90
8475;DHT22;4274;52.012;8.448;2023-05-10T06:29:03;12.30;99.90
8475;DHT22;4274;52.012;8.448;2023-05-10T06:31:28;12.40;99.90
8475;DHT22;4274;52.012;8.448;2023-05-10T06:33:54;12.40;99.90
8475;DHT22;4274;52.012;8.448;2023-05-10T06:36:19;12.40;99.90
8475;DHT22;4274;52.012;8.448;2023-05-10T06:38:45;12.40;99.90
8475;DHT22;4274;52.012;8.448;2023-05-10T06:41:10;12.40;99.90
8475;DHT22;4274;52.012;8.448;2023-05-10T06:43:36;12.40;99.90
8475;DHT22;4274;52.012;8.448;2023-05-10T06:46:05;12.40;99.90
8475;DHT22;4274;52.012;8.448;2023-05-10T06:48:31;12.50;99.90
8475;DHT22;4274;52.012;8.448;2023-05-10T06:50:56;12.40;99.90
8475;DHT22;4274;52.012;8.448;2023-05-10T06:53:22;12.50;99.90
8475;DHT22;4274;52.012;8.448;2023-05-10T06:55:49;12.50;99.90
8475;DHT22;4274;52.012;8.448;2023-05-10T06:58:14;12.50;99.90
8475;DHT22;4274;52.012;8.448;2023-05-10T07:00:40;12.60;99.90
8475;DHT22;4274;52.012;8.448;2023-05-10T07:03:10;12.60;99.90
8475;DHT22;4274;52.012;8.448;2023-05-10T07:05:35;12.60;99.90
8475;DHT22;4274;52.012;8.448;2023-05-10T07:08:01;12.60;99.90
8475;DHT22;4274;52.012;8.448;2023-05-10T07:10:27;12.60;99.90
8475;DHT22;4274;52.012;8.448;2023-05-10T07:12:52;12.60;99.90
8475;DHT22;4274;52.012;8.448;2023-05-10T07:15:18;12.60;99.90
8475;DHT22;4274;52.012;8.448;2023-05-10T07:17:43;12.70;99.90
8475;DHT22;4274;52.012;8.448;2023-05-10T07:20:09;12.70;99.90
8475;DHT22;4274;52.012;8.448;2023-05-10T07:22:35;12.70;99.90
8475;DHT22;4274;52.012;8.448;2023-05-10T07:25:00;12.80;99.90
8475;DHT22;4274;52.012;8.448;2023-05-10T07:27:26;12.80;99.90
8475;DHT22;4274;52.012;8.448;2023-05-10T07:29:52;12.80;99.90
8475;DHT22;4274;52.012;8.448;2023-05-10T07:32:17;12.90;99.90
8475;DHT22;4274;52.012;8.448;2023-05-10T07:34:43;13.00;99.90
8475;DHT22;4274;52.012;8.448;2023-05-10T07:37:08;13.00;99.90
8475;DHT22;4274;52.012;8.448;2023-05-10T07:39:34;13.10;99.90
8475;DHT22;4274;52.012;8.448;2023-05-10T07:41:59;13.20;99.90
8475;DHT22;4274;52.012;8.448;2023-05-10T07:44:25;13.20;99.90
8475;DHT22;4274;52.012;8.448;2023-05-10T07:46:51;13.20;99.90
8475;DHT22;4274;52.012;8.448;2023-05-10T07:49:17;13.20;99.90
8475;DHT22;4274;52.012;8.448;2023-05-10T07:51:43;13.20;99.90
8475;DHT22;4274;52.012;8.448;2023-05-10T07:54:08;13.30;99.90
8475;DHT22;4274;52.012;8.448;2023-05-10T07:56:34;13.30;99.90
8475;DHT22;4274;52.012;8.448;2023-05-10T07:59:01;13.40;99.90
8475;DHT22;4274;52.012;8.448;2023-05-10T08:01:30;13.40;99.90
8475;DHT22;4274;52.012;8.448;2023-05-10T08:03:56;13.50;99.90
8475;DHT22;4274;52.012;8.448;2023-05-10T08:06:22;13.50;99.90
8475;DHT22;4274;52.012;8.448;2023-05-10T08:08:48;13.60;99.90
8475;DHT22;4274;52.012;8.448;2023-05-10T08:11:19;13.70;99.90
8475;DHT22;4274;52.012;8.448;2023-05-10T08:13:46;13.80;99.90
8475;DHT22;4274;52.012;8.448;2023-05-10T08:16:12;13.90;99.90
8475;DHT22;4274;52.012;8.448;2023-05-10T08:18:38;14.10;99.90
8475;DHT22;4274;52.012;8.448;2023-05-10T08:21:04;14.20;99.90
8475;DHT22;4274;52.012;8.448;2023-05-10T08:23:30;14.40;99.90
8475;DHT22;4274;52.012;8.448;2023-05-10T08:25:55;14.50;99.90
8475;DHT22;4274;52.012;8.448;2023-05-10T08:28:21;14.40;99.90
8475;DHT22;4274;52.012;8.448;2023-05-10T08:30:46;14.40;99.90
8475;DHT22;4274;52.012;8.448;2023-05-10T08:33:12;14.40;99.90
8475;DHT22;4274;52.012;8.448;2023-05-10T08:35:37;14.50;99.90
8475;DHT22;4274;52.012;8.448;2023-05-10T08:38:03;14.70;99.90
8475;DHT22;4274;52.012;8.448;2023-05-10T08:40:29;14.80;99.90
8475;DHT22;4274;52.012;8.448;2023-05-10T08:43:06;14.90;99.90
8475;DHT22;4274;52.012;8.448;2023-05-10T08:45:35;14.90;99.90
8475;DHT22;4274;52.012;8.448;2023-05-10T08:48:02;14.80;99.90
8475;DHT22;4274;52.012;8.448;2023-05-10T08:50:31;14.70;99.90
8475;DHT22;4274;52.012;8.448;2023-05-10T08:53:00;14.40;99.90
8475;DHT22;4274;52.012;8.448;2023-05-10T08:55:26;14.20;99.90
8475;DHT22;4274;52.012;8.448;2023-05-10T08:57:52;14.00;99.90
8475;DHT22;4274;52.012;8.448;2023-05-10T09:00:18;13.90;99.90
8475;DHT22;4274;52.012;8.448;2023-05-10T09:02:45;13.90;99.90
8475;DHT22;4274;52.012;8.448;2023-05-10T09:05:13;14.00;99.90
8475;DHT22;4274;52.012;8.448;2023-05-10T09:07:41;14.20;99.90
8475;DHT22;4274;52.012;8.448;2023-05-10T09:10:08;14.40;99.90
8475;DHT22;4274;52.012;8.448;2023-05-10T09:12:34;14.50;99.90
8475;DHT22;4274;52.012;8.448;2023-05-10T09:15:00;14.70;99.90
8475;DHT22;4274;52.012;8.448;2023-05-10T09:17:27;14.90;99.90
8475;DHT22;4274;52.012;8.448;2023-05-10T09:20:01;15.00;99.90
8475;DHT22;4274;52.012;8.448;2023-05-10T09:22:28;15.10;99.90
8475;DHT22;4274;52.012;8.448;2023-05-10T09:25:13;15.20;99.90
8475;DHT22;4274;52.012;8.448;2023-05-10T09:27:40;15.40;99.90
8475;DHT22;4274;52.012;8.448;2023-05-10T09:30:07;15.50;99.90
8475;DHT22;4274;52.012;8.448;2023-05-10T09:32:41;15.60;99.90
8475;DHT22;4274;52.012;8.448;2023-05-10T09:37:33;15.90;99.90
8475;DHT22;4274;52.012;8.448;2023-05-10T09:39:59;16.10;99.90
8475;DHT22;4274;52.012;8.448;2023-05-10T09:42:24;16.30;99.90
8475;DHT22;4274;52.012;8.448;2023-05-10T09:44:50;16.60;99.90
8475;DHT22;4274;52.012;8.448;2023-05-10T09:47:19;16.70;99.90
8475;DHT22;4274;52.012;8.448;2023-05-10T09:49:49;16.80;99.90
8475;DHT22;4274;52.012;8.448;2023-05-10T09:52:15;16.90;99.90
8475;DHT22;4274;52.012;8.448;2023-05-10T09:54:45;17.00;99.90
8475;DHT22;4274;52.012;8.448;2023-05-10T09:57:21;17.20;99.90
8475;DHT22;4274;52.012;8.448;2023-05-10T09:59:47;17.30;99.90
8475;DHT22;4274;52.012;8.448;2023-05-10T10:02:13;17.60;99.90
8475;DHT22;4274;52.012;8.448;2023-05-10T10:04:40;17.40;99.90
8475;DHT22;4274;52.012;8.448;2023-05-10T10:07:06;17.30;99.90
8475;DHT22;4274;52.012;8.448;2023-05-10T10:09:32;17.10;99.90
8475;DHT22;4274;52.012;8.448;2023-05-10T10:11:59;17.60;99.90
8475;DHT22;4274;52.012;8.448;2023-05-10T10:14:26;18.70;99.90
8475;DHT22;4274;52.012;8.448;2023-05-10T10:16:52;19.40;99.90
8475;DHT22;4274;52.012;8.448;2023-05-10T10:19:21;20.10;99.90
8475;DHT22;4274;52.012;8.448;2023-05-10T10:21:48;20.20;99.90
8475;DHT22;4274;52.012;8.448;2023-05-10T10:24:14;20.20;99.90
8475;DHT22;4274;52.012;8.448;2023-05-10T10:26:40;20.60;99.90
8475;DHT22;4274;52.012;8.448;2023-05-10T10:29:19;21.30;99.90
8475;DHT22;4274;52.012;8.448;2023-05-10T10:31:55;22.00;99.90
8475;DHT22;4274;52.012;8.448;2023-05-10T10:34:28;22.40;99.90
8475;DHT22;4274;52.012;8.448;2023-05-10T10:36:55;22.70;99.90
8475;DHT22;4274;52.012;8.448;2023-05-10T10:39:21;23.20;99.90
8475;DHT22;4274;52.012;8.448;2023-05-10T10:41:53;23.60;99.90
8475;DHT22;4274;52.012;8.448;2023-05-10T10:52:51;22.70;99.90
8475;DHT22;4274;52.012;8.448;2023-05-10T10:55:19;23.00;99.90
8475;DHT22;4274;52.012;8.448;2023-05-10T10:57:51;23.50;99.90
8475;DHT22;4274;52.012;8.448;2023-05-10T11:00:31;23.40;99.90
8475;DHT22;4274;52.012;8.448;2023-05-10T11:03:08;23.30;99.90
8475;DHT22;4274;52.012;8.448;2023-05-10T11:05:44;23.10;99.90
8475;DHT22;4274;52.012;8.448;2023-05-10T11:10:48;23.20;99.90
8475;DHT22;4274;52.012;8.448;2023-05-10T11:13:14;23.30;99.90
8475;DHT22;4274;52.012;8.448;2023-05-10T11:15:40;22.90;99.90
8475;DHT22;4274;52.012;8.448;2023-05-10T11:18:27;22.40;99.90
8475;DHT22;4274;52.012;8.448;2023-05-10T11:21:00;22.50;99.90
8475;DHT22;4274;52.012;8.448;2023-05-10T11:23:32;22.80;99.90
8475;DHT22;4274;52.012;8.448;2023-05-10T11:26:00;22.70;99.90
8475;DHT22;4274;52.012;8.448;2023-05-10T11:28:26;22.60;99.90
8475;DHT22;4274;52.012;8.448;2023-05-10T11:30:53;22.60;99.90
8475;DHT22;4274;52.012;8.448;2023-05-10T11:33:20;22.60;99.90
8475;DHT22;4274;52.012;8.448;2023-05-10T11:35:45;22.70;99.90
8475;DHT22;4274;52.012;8.448;2023-05-10T11:38:12;22.90;99.90
8475;DHT22;4274;52.012;8.448;2023-05-10T11:40:39;22.80;99.90
8475;DHT22;4274;52.012;8.448;2023-05-10T11:43:05;22.40;99.90
8475;DHT22;4274;52.012;8.448;2023-05-10T11:45:35;21.70;99.90
8475;DHT22;4274;52.012;8.448;2023-05-10T11:48:01;21.20;99.90
8475;DHT22;4274;52.012;8.448;2023-05-10T11:50:27;20.70;99.90
8475;DHT22;4274;52.012;8.448;2023-05-10T11:52:53;20.10;99.90
8475;DHT22;4274;52.012;8.448;2023-05-10T11:55:19;19.60;99.90
8475;DHT22;4274;52.012;8.448;2023-05-10T11:57:45;19.20;99.90
8475;DHT22;4274;52.012;8.448;2023-05-10T12:00:12;18.70;99.90
8475;DHT22;4274;52.012;8.448;2023-05-10T12:02:38;18.20;99.90
8475;DHT22;4274;52.012;8.448;2023-05-10T12:05:05;17.90;99.90
8475;DHT22;4274;52.012;8.448;2023-05-10T12:07:31;17.70;99.90
8475;DHT22;4274;52.012;8.448;2023-05-10T12:10:06;17.60;99.90
8475;DHT22;4274;52.012;8.448;2023-05-10T12:12:44;17.40;99.90
8475;DHT22;4274;52.012;8.448;2023-05-10T12:15:27;17.40;99.90
8475;DHT22;4274;52.012;8.448;2023-05-10T12:17:53;17.40;99.90
8475;DHT22;4274;52.012;8.448;2023-05-10T12:20:20;17.50;99.90
8475;DHT22;4274;52.012;8.448;2023-05-10T12:22:48;17.50;99.90
8475;DHT22;4274;52.012;8.448;2023-05-10T12:25:14;17.60;99.90
8475;DHT22;4274;52.012;8.448;2023-05-10T12:27:46;17.60;99.90
8475;DHT22;4274;52.012;8.448;2023-05-10T12:30:13;17.50;99.90
8475;DHT22;4274;52.012;8.448;2023-05-10T12:32:44;17.40;99.90
8475;DHT22;4274;52.012;8.448;2023-05-10T12:35:09;17.20;99.90
8475;DHT22;4274;52.012;8.448;2023-05-10T12:37:35;17.00;99.90
8475;DHT22;4274;52.012;8.448;2023-05-10T12:40:06;16.80;99.90
8475;DHT22;4274;52.012;8.448;2023-05-10T12:42:32;16.60;99.90
8475;DHT22;4274;52.012;8.448;2023-05-10T12:44:57;16.40;99.90
8475;DHT22;4274;52.012;8.448;2023-05-10T12:47:23;16.30;99.90
8475;DHT22;4274;52.012;8.448;2023-05-10T12:49:48;16.50;99.90
8475;DHT22;4274;52.012;8.448;2023-05-10T12:52:14;17.10;99.90
8475;DHT22;4274;52.012;8.448;2023-05-10T12:54:40;17.80;99.90
8475;DHT22;4274;52.012;8.448;2023-05-10T12:57:05;18.40;99.90
8475;DHT22;4274;52.012;8.448;2023-05-10T12:59:31;18.90;99.90
8475;DHT22;4274;52.012;8.448;2023-05-10T13:01:57;19.10;99.90
8475;DHT22;4274;52.012;8.448;2023-05-10T13:04:23;19.10;99.90
8475;DHT22;4274;52.012;8.448;2023-05-10T13:06:48;19.00;99.90
8475;DHT22;4274;52.012;8.448;2023-05-10T13:09:14;18.90;99.90
8475;DHT22;4274;52.012;8.448;2023-05-10T13:11:40;18.70;99.90
8475;DHT22;4274;52.012;8.448;2023-05-10T13:14:06;18.50;99.90
8475;DHT22;4274;52.012;8.448;2023-05-10T13:16:32;18.30;99.90
8475;DHT22;4274;52.012;8.448;2023-05-10T13:18:57;18.10;99.90
8475;DHT22;4274;52.012;8.448;2023-05-10T13:21:23;17.80;99.90
8475;DHT22;4274;52.012;8.448;2023-05-10T13:23:50;17.40;99.90
8475;DHT22;4274;52.012;8.448;2023-05-10T13:26:16;16.80;99.90
8475;DHT22;4274;52.012;8.448;2023-05-10T13:28:41;16.10;99.90
8475;DHT22;4274;52.012;8.448;2023-05-10T13:31:07;15.50;99.90
8475;DHT22;4274;52.012;8.448;2023-05-10T13:33:33;15.00;99.90
8475;DHT22;4274;52.012;8.448;2023-05-10T13:35:58;14.80;99.90
8475;DHT22;4274;52.012;8.448;2023-05-10T13:38:24;14.50;99.90
8475;DHT22;4274;52.012;8.448;2023-05-10T13:40:49;14.40;99.90
8475;DHT22;4274;52.012;8.448;2023-05-10T13:43:18;14.30;99.90
8475;DHT22;4274;52.012;8.448;2023-05-10T13:45:43;14.30;99.90
8475;DHT22;4274;52.012;8.448;2023-05-10T13:48:09;14.30;99.90
8475;DHT22;4274;52.012;8.448;2023-05-10T13:50:34;14.30;99.90
8475;DHT22;4274;52.012;8.448;2023-05-10T13:53:00;14.30;99.90
8475;DHT22;4274;52.012;8.448;2023-05-10T13:55:26;14.20;99.90
8475;DHT22;4274;52.012;8.448;2023-05-10T13:57:51;14.20;99.90
8475;DHT22;4274;52.012;8.448;2023-05-10T14:00:17;14.30;99.90
8475;DHT22;4274;52.012;8.448;2023-05-10T14:02:43;14.30;99.90
8475;DHT22;4274;52.012;8.448;2023-05-10T14:05:08;14.30;99.90
8475;DHT22;4274;52.012;8.448;2023-05-10T14:07:34;14.30;99.90
8475;DHT22;4274;52.012;8.448;2023-05-10T14:10:00;14.40;99.90
8475;DHT22;4274;52.012;8.448;2023-05-10T14:12:25;14.50;99.90
8475;DHT22;4274;52.012;8.448;2023-05-10T14:14:51;14.60;99.90
8475;DHT22;4274;52.012;8.448;2023-05-10T14:17:17;14.70;99.90
8475;DHT22;4274;52.012;8.448;2023-05-10T14:19:43;14.80;99.90
8475;DHT22;4274;52.012;8.448;2023-05-10T14:22:09;14.90;99.90
8475;DHT22;4274;52.012;8.448;2023-05-10T14:24:34;14.90;99.90
8475;DHT22;4274;52.012;8.448;2023-05-10T14:27:00;15.10;99.90
8475;DHT22;4274;52.012;8.448;2023-05-10T14:29:25;15.30;99.90
8475;DHT22;4274;52.012;8.448;2023-05-10T14:31:51;15.40;99.90
8475;DHT22;4274;52.012;8.448;2023-05-10T14:34:17;15.50;99.90
8475;DHT22;4274;52.012;8.448;2023-05-10T14:36:42;15.60;99.90
8475;DHT22;4274;52.012;8.448;2023-05-10T14:39:08;15.70;99.90
8475;DHT22;4274;52.012;8.448;2023-05-10T14:41:35;15.80;99.90
8475;DHT22;4274;52.012;8.448;2023-05-10T14:44:01;15.90;99.90
8475;DHT22;4274;52.012;8.448;2023-05-10T14:46:28;15.90;99.90
8475;DHT22;4274;52.012;8.448;2023-05-10T14:48:55;16.00;99.90
8475;DHT22;4274;52.012;8.448;2023-05-10T14:51:20;16.00;99.90
8475;DHT22;4274;52.012;8.448;2023-05-10T14:53:50;16.10;99.90
8475;DHT22;4274;52.012;8.448;2023-05-10T14:56:16;16.10;99.90
8475;DHT22;4274;52.012;8.448;2023-05-10T14:58:41;16.20;99.90
8475;DHT22;4274;52.012;8.448;2023-05-10T15:01:07;16.20;99.90
8475;DHT22;4274;52.012;8.448;2023-05-10T15:03:33;16.20;99.90
8475;DHT22;4274;52.012;8.448;2023-05-10T15:05:58;16.20;99.90
8475;DHT22;4274;52.012;8.448;2023-05-10T15:08:24;16.20;99.90
8475;DHT22;4274;52.012;8.448;2023-05-10T15:10:50;16.20;99.90
8475;DHT22;4274;52.012;8.448;2023-05-10T15:13:16;16.10;99.90
8475;DHT22;4274;52.012;8.448;2023-05-10T15:15:41;16.10;99.90
8475;DHT22;4274;52.012;8.448;2023-05-10T15:18:08;16.10;99.90
8475;DHT22;4274;52.012;8.448;2023-05-10T15:20:34;16.10;99.90
8475;DHT22;4274;52.012;8.448;2023-05-10T15:23:00;16.10;99.90
8475;DHT22;4274;52.012;8.448;2023-05-10T15:25:26;16.20;99.90
8475;DHT22;4274;52.012;8.448;2023-05-10T15:27:52;16.20;99.90
8475;DHT22;4274;52.012;8.448;2023-05-10T15:30:18;16.10;99.90
8475;DHT22;4274;52.012;8.448;2023-05-10T15:32:44;16.00;99.90
8475;DHT22;4274;52.012;8.448;2023-05-10T15:35:09;16.00;99.90
8475;DHT22;4274;52.012;8.448;2023-05-10T15:37:35;15.90;99.90
8475;DHT22;4274;52.012;8.448;2023-05-10T15:40:01;15.80;99.90
8475;DHT22;4274;52.012;8.448;2023-05-10T15:42:30;15.70;99.90
8475;DHT22;4274;52.012;8.448;2023-05-10T15:44:57;15.60;99.90
8475;DHT22;4274;52.012;8.448;2023-05-10T15:47:23;15.40;99.90
8475;DHT22;4274;52.012;8.448;2023-05-10T15:49:49;15.40;99.90
8475;DHT22;4274;52.012;8.448;2023-05-10T15:52:14;15.20;99.90
8475;DHT22;4274;52.012;8.448;2023-05-10T15:54:41;15.10;99.90
8475;DHT22;4274;52.012;8.448;2023-05-10T15:57:06;14.90;99.90
8475;DHT22;4274;52.012;8.448;2023-05-10T15:59:32;14.80;99.90
8475;DHT22;4274;52.012;8.448;2023-05-10T16:01:58;14.60;99.90
8475;DHT22;4274;52.012;8.448;2023-05-10T16:04:23;14.50;99.90
8475;DHT22;4274;52.012;8.448;2023-05-10T16:06:49;14.50;99.90
8475;DHT22;4274;52.012;8.448;2023-05-10T16:09:14;14.40;99.90
8475;DHT22;4274;52.012;8.448;2023-05-10T16:11:42;14.40;99.90
8475;DHT22;4274;52.012;8.448;2023-05-10T16:14:08;14.40;99.90
8475;DHT22;4274;52.012;8.448;2023-05-10T16:16:34;14.30;99.90
8475;DHT22;4274;52.012;8.448;2023-05-10T16:18:59;14.20;99.90
8475;DHT22;4274;52.012;8.448;2023-05-10T16:21:26;14.10;99.90
8475;DHT22;4274;52.012;8.448;2023-05-10T16:23:53;14.10;99.90
8475;DHT22;4274;52.012;8.448;2023-05-10T16:26:19;14.00;99.90
8475;DHT22;4274;52.012;8.448;2023-05-10T16:28:46;14.00;99.90
8475;DHT22;4274;52.012;8.448;2023-05-10T16:31:11;14.00;99.90